NCAR-RAP Real-Time Weather Data

Output produced by METARs form (17 July 2018  04:05 UTC)
found at http://weather.rap.ucar.edu/surface/
 
Conditions at: KVRB observed 17 July 2018  03:53 UTC
Temperature: 27.2°C (81°F)
Dewpoint: 22.8°C (73°F) [RH = 77%]
Pressure (altimeter): 30.09 inches Hg (1019.0 mb)
[Sea-level pressure: 1018.8 mb]
Winds: from the S (190 degrees) at 7 MPH (6 knots; 3.1 m/s)
Visibility: 10 or more miles (16+ km)
Ceiling: at least 12,000 feet AGL
Clouds: sky clear below 12,000 feet AGL
Present Weather: automated observation with no human augmentation;
there may or may not be significant weather present at this time
KVRB 170353Z AUTO 19006KT 10SM CLR 27/23 A3009 RMK AO2 SLP188 T02720228

Conditions at: KVRB observed 17 July 2018  02:53 UTC
Temperature: 27.8°C (82°F)
Dewpoint: 22.8°C (73°F) [RH = 74%]
Pressure (altimeter): 30.09 inches Hg (1019.0 mb)
[Sea-level pressure: 1018.8 mb]
Winds: from the SW (230 degrees) at 3 MPH (3 knots; 1.6 m/s)
Visibility: 10 or more miles (16+ km)
Ceiling: at least 12,000 feet AGL
Clouds: sky clear below 12,000 feet AGL
Present Weather: automated observation with no human augmentation;
there may or may not be significant weather present at this time
KVRB 170253Z AUTO 23003KT 10SM CLR 28/23 A3009 RMK AO2 SLP188 T02780228 53015

Conditions at: KVRB observed 17 July 2018  01:53 UTC
Temperature: 28.9°C (84°F)
Dewpoint: 23.3°C (74°F) [RH = 72%]
Pressure (altimeter): 30.08 inches Hg (1018.7 mb)
[Sea-level pressure: 1018.4 mb]
Winds: from the SSW (210 degrees) at 7 MPH (6 knots; 3.1 m/s)
Visibility: 10 or more miles (16+ km)
Ceiling: 4700 feet AGL
Clouds: broken clouds at 4700 feet AGL
Present Weather: automated observation with no human augmentation;
there may or may not be significant weather present at this time
KVRB 170153Z AUTO 21006KT 10SM BKN047 29/23 A3008 RMK AO2 SLP184 T02890233

Conditions at: KVRB observed 17 July 2018  00:53 UTC
Temperature: 30.0°C (86°F)
Dewpoint: 22.8°C (73°F) [RH = 65%]
Pressure (altimeter): 30.05 inches Hg (1017.7 mb)
[Sea-level pressure: 1017.5 mb]
Winds: from the S (190 degrees) at 8 MPH (7 knots; 3.6 m/s)
Visibility: 10 or more miles (16+ km)
Ceiling: at least 12,000 feet AGL
Clouds: sky clear below 12,000 feet AGL
Present Weather: no significant weather observed at this time
KVRB 170053Z 19007KT 10SM CLR 30/23 A3005 RMK AO2 SLP175 T03000228

Conditions at: KVRB observed 16 July 2018  23:53 UTC
Temperature: 30.0°C (86°F)
Dewpoint: 23.9°C (75°F) [RH = 70%]
Pressure (altimeter): 30.05 inches Hg (1017.7 mb)
[Sea-level pressure: 1017.3 mb]
Winds: from the SSE (150 degrees) at 12 MPH (10 knots; 5.2 m/s)
Visibility: 10 or more miles (16+ km)
Ceiling: at least 12,000 feet AGL
Clouds: sky clear below 12,000 feet AGL
Present Weather: no significant weather observed at this time
KVRB 162353Z 15010KT 10SM CLR 30/24 A3005 RMK AO2 SLP173 T03000239 10344 20300 53003

Conditions at: KVRB observed 16 July 2018  22:53 UTC
Temperature: 31.7°C (89°F)
Dewpoint: 22.2°C (72°F) [RH = 57%]
Pressure (altimeter): 30.02 inches Hg (1016.7 mb)
[Sea-level pressure: 1016.5 mb]
Winds: from the SE (140 degrees) at 13 MPH (11 knots; 5.7 m/s)
Visibility: 10 or more miles (16+ km)
Ceiling: at least 12,000 feet AGL
Clouds: sky clear below 12,000 feet AGL
Present Weather: no significant weather observed at this time
KVRB 162253Z 14011KT 10SM CLR 32/22 A3002 RMK AO2 LTG DSNT NW SLP165 T03170222

Conditions at: KVRB observed 16 July 2018  21:53 UTC
Temperature: 32.2°C (90°F)
Dewpoint: 22.8°C (73°F) [RH = 58%]
Pressure (altimeter): 30.03 inches Hg (1017.0 mb)
[Sea-level pressure: 1016.8 mb]
Winds: from the SSE (150 degrees) at 16 MPH (14 knots; 7.3 m/s)
Visibility: 10 or more miles (16+ km)
Ceiling: at least 12,000 feet AGL
Clouds: sky clear below 12,000 feet AGL
Present Weather: no significant weather observed at this time
KVRB 162153Z 15014KT 10SM CLR 32/23 A3003 RMK AO2 SLP168 T03220228

Conditions at: KVRB observed 16 July 2018  20:53 UTC
Temperature: 32.8°C (91°F)
Dewpoint: 22.8°C (73°F) [RH = 56%]
Pressure (altimeter): 30.04 inches Hg (1017.4 mb)
[Sea-level pressure: 1017.1 mb]
Winds: from the SE (140 degrees) at 15 MPH (13 knots; 6.8 m/s)
gusting to 23 MPH (20 knots; 10.4 m/s)
Visibility: 10 or more miles (16+ km)
Ceiling: at least 12,000 feet AGL
Clouds: sky clear below 12,000 feet AGL
Present Weather: no significant weather observed at this time
KVRB 162053Z 14013G20KT 10SM CLR 33/23 A3004 RMK AO2 LTG DSNT SW AND W SLP171 T03280228 56014

Conditions at: KVRB observed 16 July 2018  19:53 UTC
Temperature: 33.3°C (92°F)
Dewpoint: 23.3°C (74°F) [RH = 56%]
Pressure (altimeter): 30.04 inches Hg (1017.4 mb)
[Sea-level pressure: 1017.2 mb]
Winds: from the ESE (110 degrees) at 15 MPH (13 knots; 6.8 m/s)
Visibility: 10 or more miles (16+ km)
Ceiling: at least 12,000 feet AGL
Clouds: sky clear below 12,000 feet AGL
Present Weather: automated observation with no human augmentation;
there may or may not be significant weather present at this time
KVRB 161953Z AUTO 11013KT 10SM CLR 33/23 A3004 RMK AO2 SLP172 T03330233

Conditions at: KVRB observed 16 July 2018  18:53 UTC
Temperature: 33.9°C (93°F)
Dewpoint: 22.8°C (73°F) [RH = 52%]
Pressure (altimeter): 30.05 inches Hg (1017.7 mb)
[Sea-level pressure: 1017.5 mb]
Winds: from the ESE (120 degrees) at 13 MPH (11 knots; 5.7 m/s)
Visibility: 10 or more miles (16+ km)
Ceiling: at least 12,000 feet AGL
Clouds: sky clear below 12,000 feet AGL
Present Weather: no significant weather observed at this time
KVRB 161853Z 12011KT 10SM CLR 34/23 A3005 RMK AO2 SLP175 T03390228

Conditions at: KVRB observed 16 July 2018  17:53 UTC
Temperature: 33.3°C (92°F)
Dewpoint: 22.2°C (72°F) [RH = 52%]
Pressure (altimeter): 30.08 inches Hg (1018.7 mb)
[Sea-level pressure: 1018.4 mb]
Winds: from the E (100 degrees) at 10 MPH (9 knots; 4.7 m/s)
Visibility: 10 or more miles (16+ km)
Ceiling: at least 12,000 feet AGL
Clouds: sky clear below 12,000 feet AGL
Present Weather: no significant weather observed at this time
KVRB 161753Z 10009KT 10SM CLR 33/22 A3008 RMK AO2 SLP184 T03330222 10344 20267 58005

Conditions at: KVRB observed 16 July 2018  16:53 UTC
Temperature: 33.3°C (92°F)
Dewpoint: 22.2°C (72°F) [RH = 52%]
Pressure (altimeter): 30.09 inches Hg (1019.0 mb)
[Sea-level pressure: 1018.7 mb]
Winds: from the E (100 degrees) at 12 MPH (10 knots; 5.2 m/s)
Visibility: 10 or more miles (16+ km)
Ceiling: at least 12,000 feet AGL
Clouds: sky clear below 12,000 feet AGL
Present Weather: no significant weather observed at this time
KVRB 161653Z 10010KT 10SM CLR 33/22 A3009 RMK AO2 SLP187 T03330222

Conditions at: KVRB observed 16 July 2018  15:53 UTC
Temperature: 33.3°C (92°F)
Dewpoint: 20.6°C (69°F) [RH = 47%]
Pressure (altimeter): 30.10 inches Hg (1019.4 mb)
[Sea-level pressure: 1019.0 mb]
Winds: from the S (190 degrees) at 6 MPH (5 knots; 2.6 m/s)
Visibility: 10 or more miles (16+ km)
Ceiling: at least 12,000 feet AGL
Clouds: few clouds at 4500 feet AGL
Present Weather: no significant weather observed at this time
KVRB 161553Z 19005KT 10SM FEW045 33/21 A3010 RMK AO2 SLP190 T03330206

Conditions at: KVRB observed 16 July 2018  14:53 UTC
Temperature: 31.7°C (89°F)
Dewpoint: 19.4°C (67°F) [RH = 48%]
Pressure (altimeter): 30.09 inches Hg (1019.0 mb)
[Sea-level pressure: 1018.9 mb]
Winds: from the SW (220 degrees) at 6 MPH (5 knots; 2.6 m/s)
Visibility: 10 or more miles (16+ km)
Ceiling: at least 12,000 feet AGL
Clouds: sky clear below 12,000 feet AGL
Present Weather: no significant weather observed at this time
KVRB 161453Z 22005KT 10SM CLR 32/19 A3009 RMK AO2 SLP189 T03170194 51006

Conditions at: KVRB observed 16 July 2018  13:53 UTC
Temperature: 30.6°C (87°F)
Dewpoint: 21.7°C (71°F) [RH = 59%]
Pressure (altimeter): 30.09 inches Hg (1019.0 mb)
[Sea-level pressure: 1018.8 mb]
Winds: from the S (170 degrees) at 6 MPH (5 knots; 2.6 m/s)
Visibility: 10 or more miles (16+ km)
Ceiling: at least 12,000 feet AGL
Clouds: sky clear below 12,000 feet AGL
Present Weather: no significant weather observed at this time
KVRB 161353Z 17005KT 10SM CLR 31/22 A3009 RMK AO2 SLP188 T03060217

Conditions at: KVRB observed 16 July 2018  12:53 UTC
Temperature: 29.4°C (85°F)
Dewpoint: 22.8°C (73°F) [RH = 68%]
Pressure (altimeter): 30.09 inches Hg (1019.0 mb)
[Sea-level pressure: 1018.6 mb]
Winds: from the SW (220 degrees) at 6 MPH (5 knots; 2.6 m/s)
Visibility: 10 or more miles (16+ km)
Ceiling: at least 12,000 feet AGL
Clouds: sky clear below 12,000 feet AGL
Present Weather: no significant weather observed at this time
KVRB 161253Z 22005KT 10SM CLR 29/23 A3009 RMK AO2 SLP186 T02940228

Conditions at: KVRB observed 16 July 2018  11:53 UTC
Temperature: 26.7°C (80°F)
Dewpoint: 23.3°C (74°F) [RH = 82%]
Pressure (altimeter): 30.08 inches Hg (1018.7 mb)
[Sea-level pressure: 1018.4 mb]
Winds: from the SSW (200 degrees) at 5 MPH (4 knots; 2.1 m/s)
Visibility: 10 or more miles (16+ km)
Ceiling: at least 12,000 feet AGL
Clouds: sky clear below 12,000 feet AGL
Present Weather: no significant weather observed at this time
KVRB 161153Z 20004KT 10SM CLR 27/23 A3008 RMK AO2 SLP184 T02670233 10267 20222 53011

Conditions at: KVRB observed 16 July 2018  10:53 UTC
Temperature: 22.8°C (73°F)
Dewpoint: 21.7°C (71°F) [RH = 94%]
Pressure (altimeter): 30.06 inches Hg (1018.0 mb)
[Sea-level pressure: 1017.8 mb]
Winds: calm
Visibility: 9 miles (14 km)
Ceiling: at least 12,000 feet AGL
Clouds: sky clear below 12,000 feet AGL
Present Weather: no significant weather observed at this time
KVRB 161053Z 00000KT 9SM CLR 23/22 A3006 RMK AO2 SLP178 T02280217

Conditions at: KVRB observed 16 July 2018  09:53 UTC
Temperature: 22.8°C (73°F)
Dewpoint: 21.1°C (70°F) [RH = 90%]
Pressure (altimeter): 30.05 inches Hg (1017.7 mb)
[Sea-level pressure: 1017.6 mb]
Winds: calm
Visibility: 10 or more miles (16+ km)
Ceiling: at least 12,000 feet AGL
Clouds: sky clear below 12,000 feet AGL
Present Weather: automated observation with no human augmentation;
there may or may not be significant weather present at this time
KVRB 160953Z AUTO 00000KT 10SM CLR 23/21 A3005 RMK AO2 SLP176 T02280211

Conditions at: KVRB observed 16 July 2018  08:53 UTC
Temperature: 22.8°C (73°F)
Dewpoint: 21.7°C (71°F) [RH = 94%]
Pressure (altimeter): 30.05 inches Hg (1017.7 mb)
[Sea-level pressure: 1017.3 mb]
Winds: calm
Visibility: 10 or more miles (16+ km)
Ceiling: at least 12,000 feet AGL
Clouds: sky clear below 12,000 feet AGL
Present Weather: automated observation with no human augmentation;
there may or may not be significant weather present at this time
KVRB 160853Z AUTO 00000KT 10SM CLR 23/22 A3005 RMK AO2 SLP173 T02280217 56006

Conditions at: KVRB observed 16 July 2018  07:53 UTC
Temperature: 23.9°C (75°F)
Dewpoint: 22.2°C (72°F) [RH = 90%]
Pressure (altimeter): 30.04 inches Hg (1017.4 mb)
[Sea-level pressure: 1017.3 mb]
Winds: calm
Visibility: 10 or more miles (16+ km)
Ceiling: at least 12,000 feet AGL
Clouds: scattered clouds at 6000 feet AGL
Present Weather: automated observation with no human augmentation;
there may or may not be significant weather present at this time
KVRB 160753Z AUTO 00000KT 10SM SCT060 24/22 A3004 RMK AO2 SLP173 T02390222

Conditions at: KVRB observed 16 July 2018  06:53 UTC
Temperature: 25.6°C (78°F)
Dewpoint: 22.2°C (72°F) [RH = 82%]
Pressure (altimeter): 30.05 inches Hg (1017.7 mb)
[Sea-level pressure: 1017.6 mb]
Winds: from the SW (230 degrees) at 3 MPH (3 knots; 1.6 m/s)
Visibility: 10 or more miles (16+ km)
Ceiling: at least 12,000 feet AGL
Clouds: few clouds at 6000 feet AGL
Present Weather: automated observation with no human augmentation;
there may or may not be significant weather present at this time
KVRB 160653Z AUTO 23003KT 10SM FEW060 26/22 A3005 RMK AO2 SLP176 T02560222

Conditions at: KVRB observed 16 July 2018  05:53 UTC
Temperature: 25.6°C (78°F)
Dewpoint: 22.2°C (72°F) [RH = 82%]
Pressure (altimeter): 30.06 inches Hg (1018.0 mb)
[Sea-level pressure: 1017.9 mb]
Winds: from the S (190 degrees) at 5 MPH (4 knots; 2.1 m/s)
Visibility: 10 or more miles (16+ km)
Ceiling: at least 12,000 feet AGL
Clouds: sky clear below 12,000 feet AGL
Present Weather: automated observation with no human augmentation;
there may or may not be significant weather present at this time
KVRB 160553Z AUTO 19004KT 10SM CLR 26/22 A3006 RMK AO2 SLP179 T02560222 10294 20256 50003

Conditions at: KVRB observed 16 July 2018  04:53 UTC
Temperature: 26.7°C (80°F)
Dewpoint: 22.8°C (73°F) [RH = 79%]
Pressure (altimeter): 30.08 inches Hg (1018.7 mb)
[Sea-level pressure: 1018.3 mb]
Winds: from the S (190 degrees) at 6 MPH (5 knots; 2.6 m/s)
Visibility: 10 or more miles (16+ km)
Ceiling: at least 12,000 feet AGL
Clouds: sky clear below 12,000 feet AGL
Present Weather: automated observation with no human augmentation;
there may or may not be significant weather present at this time
KVRB 160453Z AUTO 19005KT 10SM CLR 27/23 A3008 RMK AO2 SLP183 T02670228 403390222

Conditions at: KVRB observed 16 July 2018  03:53 UTC
Temperature: 27.2°C (81°F)
Dewpoint: 22.8°C (73°F) [RH = 77%]
Pressure (altimeter): 30.07 inches Hg (1018.4 mb)
[Sea-level pressure: 1018.2 mb]
Winds: from the S (180 degrees) at 6 MPH (5 knots; 2.6 m/s)
Visibility: 10 or more miles (16+ km)
Ceiling: at least 12,000 feet AGL
Clouds: sky clear below 12,000 feet AGL
Present Weather: automated observation with no human augmentation;
there may or may not be significant weather present at this time
KVRB 160353Z AUTO 18005KT 10SM CLR 27/23 A3007 RMK AO2 SLP182 T02720228

Conditions at: KVRB observed 16 July 2018  02:53 UTC
Temperature: 27.8°C (82°F)
Dewpoint: 22.8°C (73°F) [RH = 74%]
Pressure (altimeter): 30.05 inches Hg (1017.7 mb)
[Sea-level pressure: 1017.6 mb]
Winds: from the SSE (150 degrees) at 7 MPH (6 knots; 3.1 m/s)
Visibility: 10 or more miles (16+ km)
Ceiling: at least 12,000 feet AGL
Clouds: sky clear below 12,000 feet AGL
Present Weather: automated observation with no human augmentation;
there may or may not be significant weather present at this time
KVRB 160253Z AUTO 15006KT 10SM CLR 28/23 A3005 RMK AO2 SLP176 T02780228 53012

Conditions at: KVRB observed 16 July 2018  01:53 UTC
Temperature: 28.3°C (83°F)
Dewpoint: 23.3°C (74°F) [RH = 74%]
Pressure (altimeter): 30.04 inches Hg (1017.4 mb)
[Sea-level pressure: 1017.1 mb]
Winds: from the SSE (160 degrees) at 7 MPH (6 knots; 3.1 m/s)
Visibility: 10 or more miles (16+ km)
Ceiling: at least 12,000 feet AGL
Clouds: sky clear below 12,000 feet AGL
Present Weather: automated observation with no human augmentation;
there may or may not be significant weather present at this time
KVRB 160153Z AUTO 16006KT 10SM CLR 28/23 A3004 RMK AO2 SLP171 T02830233

Conditions at: KVRB observed 16 July 2018  00:53 UTC
Temperature: 28.3°C (83°F)
Dewpoint: 23.3°C (74°F) [RH = 74%]
Pressure (altimeter): 30.02 inches Hg (1016.7 mb)
[Sea-level pressure: 1016.6 mb]
Winds: from the SE (130 degrees) at 9 MPH (8 knots; 4.2 m/s)
Visibility: 10 or more miles (16+ km)
Ceiling: at least 12,000 feet AGL
Clouds: sky clear below 12,000 feet AGL
Present Weather: no significant weather observed at this time
KVRB 160053Z 13008KT 10SM CLR 28/23 A3002 RMK AO2 SLP166 T02830233

Conditions at: KVRB observed 15 July 2018  23:53 UTC
Temperature: 29.4°C (85°F)
Dewpoint: 22.8°C (73°F) [RH = 68%]
Pressure (altimeter): 30.02 inches Hg (1016.7 mb)
[Sea-level pressure: 1016.4 mb]
Winds: from the SE (140 degrees) at 10 MPH (9 knots; 4.7 m/s)
Visibility: 10 or more miles (16+ km)
Ceiling: at least 12,000 feet AGL
Clouds: sky clear below 12,000 feet AGL
Present Weather: no significant weather observed at this time
KVRB 152353Z 14009KT 10SM CLR 29/23 A3002 RMK AO2 SLP164 T02940228 10339 20294 55002

Conditions at: KVRB observed 15 July 2018  22:53 UTC
Temperature: 30.0°C (86°F)
Dewpoint: 23.3°C (74°F) [RH = 67%]
Pressure (altimeter): 30.01 inches Hg (1016.3 mb)
[Sea-level pressure: 1016.2 mb]
Winds: from the SE (130 degrees) at 14 MPH (12 knots; 6.2 m/s)
Visibility: 10 or more miles (16+ km)
Ceiling: at least 12,000 feet AGL
Clouds: sky clear below 12,000 feet AGL
Present Weather: no significant weather observed at this time
KVRB 152253Z 13012KT 10SM CLR 30/23 A3001 RMK AO2 SLP162 T03000233

Conditions at: KVRB observed 15 July 2018  21:53 UTC
Temperature: 31.1°C (88°F)
Dewpoint: 22.8°C (73°F) [RH = 61%]
Pressure (altimeter): 30.02 inches Hg (1016.7 mb)
[Sea-level pressure: 1016.4 mb]
Winds: from the E (100 degrees) at 9 MPH (8 knots; 4.2 m/s)
Visibility: 10 or more miles (16+ km)
Ceiling: at least 12,000 feet AGL
Clouds: sky clear below 12,000 feet AGL
Present Weather: no significant weather observed at this time
KVRB 152153Z 10008KT 10SM CLR 31/23 A3002 RMK AO2 SLP164 T03110228

Conditions at: KVRB observed 15 July 2018  20:53 UTC
Temperature: 32.2°C (90°F)
Dewpoint: 21.7°C (71°F) [RH = 54%]
Pressure (altimeter): 30.03 inches Hg (1017.0 mb)
[Sea-level pressure: 1016.6 mb]
Winds: from the ESE (110 degrees) at 9 MPH (8 knots; 4.2 m/s)
Visibility: 10 or more miles (16+ km)
Ceiling: at least 12,000 feet AGL
Clouds: sky clear below 12,000 feet AGL
Present Weather: no significant weather observed at this time
KVRB 152053Z 11008KT 10SM CLR 32/22 A3003 RMK AO2 LTG DSNT SW SLP166 T03220217 57012

Conditions at: KVRB observed 15 July 2018  20:18 UTC
Temperature: 32.2°C (90°F)
Dewpoint: 21.7°C (71°F) [RH = 54%]
Pressure (altimeter): 30.03 inches Hg (1017.0 mb)
Winds: from the E (100 degrees) at 13 MPH (11 knots; 5.7 m/s)
Visibility: 10 or more miles (16+ km)
Ceiling: at least 12,000 feet AGL
Clouds: sky clear below 12,000 feet AGL
Present Weather: no significant weather observed at this time
KVRB 152018Z 10011KT 10SM CLR 32/22 A3003 RMK AO2 LTG DSNT SW-NW T03220217

Conditions at: KVRB observed 15 July 2018  20:00 UTC
Temperature: 32.2°C (90°F)
Dewpoint: 22.2°C (72°F) [RH = 56%]
Pressure (altimeter): 30.04 inches Hg (1017.4 mb)
Winds: from the ESE (120 degrees) at 12 MPH (10 knots; 5.2 m/s)
Visibility: 10 or more miles (16+ km)
Ceiling: at least 12,000 feet AGL
Clouds: sky clear below 12,000 feet AGL
Present Weather: VCTS  (thunderstorm in vicinity)
KVRB 152000Z AUTO 12010KT 10SM VCTS CLR 32/22 A3004 RMK AO2 LTG DSNT NW T03220222

Conditions at: KVRB observed 15 July 2018  19:53 UTC
Temperature: 32.8°C (91°F)
Dewpoint: 21.1°C (70°F) [RH = 50%]
Pressure (altimeter): 30.04 inches Hg (1017.4 mb)
[Sea-level pressure: 1017.0 mb]
Winds: from the E (90 degrees) at 10 MPH (9 knots; 4.7 m/s)
Visibility: 10 or more miles (16+ km)
Ceiling: at least 12,000 feet AGL
Clouds: sky clear below 12,000 feet AGL
Present Weather: no significant weather observed at this time
KVRB 151953Z 09009KT 10SM CLR 33/21 A3004 RMK AO2 LTG DSNT NW SLP170 T03280211

Conditions at: KVRB observed 15 July 2018  19:38 UTC
Temperature: 32.8°C (91°F)
Dewpoint: 21.7°C (71°F) [RH = 52%]
Pressure (altimeter): 30.04 inches Hg (1017.4 mb)
Winds: from the E (100 degrees) at 12 MPH (10 knots; 5.2 m/s)
Visibility: 10 or more miles (16+ km)
Ceiling: at least 12,000 feet AGL
Clouds: sky clear below 12,000 feet AGL
Present Weather: VCTS  (thunderstorm in vicinity)
KVRB 151938Z 10010KT 10SM VCTS CLR 33/22 A3004 RMK AO2 T03280217

Conditions at: KVRB observed 15 July 2018  18:53 UTC
Temperature: 33.3°C (92°F)
Dewpoint: 21.7°C (71°F) [RH = 51%]
Pressure (altimeter): 30.05 inches Hg (1017.7 mb)
[Sea-level pressure: 1017.4 mb]
Winds: from the E (90 degrees) at 12 MPH (10 knots; 5.2 m/s)
Visibility: 10 or more miles (16+ km)
Ceiling: at least 12,000 feet AGL
Clouds: scattered clouds at 4400 feet AGL
Present Weather: no significant weather observed at this time
KVRB 151853Z 09010KT 10SM SCT044 33/22 A3005 RMK AO2 SLP174 T03330217

Conditions at: KVRB observed 15 July 2018  17:53 UTC
Temperature: 32.2°C (90°F)
Dewpoint: 22.2°C (72°F) [RH = 56%]
Pressure (altimeter): 30.06 inches Hg (1018.0 mb)
[Sea-level pressure: 1017.8 mb]
Winds: from the E (80 degrees) at 10 MPH (9 knots; 4.7 m/s)
Visibility: 10 or more miles (16+ km)
Ceiling: at least 12,000 feet AGL
Clouds: scattered clouds at 4000 feet AGL
Present Weather: no significant weather observed at this time
KVRB 151753Z 08009KT 10SM SCT040 32/22 A3006 RMK AO2 SLP178 T03220222 10339 20267 58005

Conditions at: KVRB observed 15 July 2018  16:53 UTC
Temperature: 33.3°C (92°F)
Dewpoint: 21.7°C (71°F) [RH = 51%]
Pressure (altimeter): 30.08 inches Hg (1018.7 mb)
[Sea-level pressure: 1018.5 mb]
Winds: missing
Visibility: 10 or more miles (16+ km)
Ceiling: at least 12,000 feet AGL
Clouds: few clouds at 4200 feet AGL
Present Weather: no significant weather observed at this time
KVRB 151653Z 10SM FEW042 33/22 A3008 RMK AO2 SLP185 T03330217

Conditions at: KVRB observed 15 July 2018  15:53 UTC
Temperature: 31.7°C (89°F)
Dewpoint: 20.0°C (68°F) [RH = 50%]
Pressure (altimeter): 30.08 inches Hg (1018.7 mb)
[Sea-level pressure: 1018.6 mb]
Winds: calm
Visibility: 10 or more miles (16+ km)
Ceiling: at least 12,000 feet AGL
Clouds: sky clear below 12,000 feet AGL
Present Weather: no significant weather observed at this time
KVRB 151553Z 00000KT 10SM CLR 32/20 A3008 RMK AO2 SLP186 T03170200

Conditions at: KVRB observed 15 July 2018  14:53 UTC
Temperature: 31.1°C (88°F)
Dewpoint: 21.1°C (70°F) [RH = 55%]
Pressure (altimeter): 30.08 inches Hg (1018.7 mb)
[Sea-level pressure: 1018.3 mb]
Winds: from the W (280 degrees) at 3 MPH (3 knots; 1.6 m/s)
Visibility: 10 or more miles (16+ km)
Ceiling: at least 12,000 feet AGL
Clouds: sky clear below 12,000 feet AGL
Present Weather: no significant weather observed at this time
KVRB 151453Z 28003KT 10SM CLR 31/21 A3008 RMK AO2 SLP183 T03110211 50007

Conditions at: KVRB observed 15 July 2018  13:53 UTC
Temperature: 30.0°C (86°F)
Dewpoint: 21.7°C (71°F) [RH = 61%]
Pressure (altimeter): 30.08 inches Hg (1018.7 mb)
[Sea-level pressure: 1018.4 mb]
Winds: from the WNW (290 degrees) at 5 MPH (4 knots; 2.1 m/s)
Visibility: 10 or more miles (16+ km)
Ceiling: at least 12,000 feet AGL
Clouds: sky clear below 12,000 feet AGL
Present Weather: no significant weather observed at this time
KVRB 151353Z 29004KT 10SM CLR 30/22 A3008 RMK AO2 SLP184 T03000217

Conditions at: KVRB observed 15 July 2018  12:53 UTC
Temperature: 28.9°C (84°F)
Dewpoint: 22.2°C (72°F) [RH = 67%]
Pressure (altimeter): 30.07 inches Hg (1018.4 mb)
[Sea-level pressure: 1018.2 mb]
Winds: from the SW (230 degrees) at 6 MPH (5 knots; 2.6 m/s)
Visibility: 10 or more miles (16+ km)
Ceiling: at least 12,000 feet AGL
Clouds: sky clear below 12,000 feet AGL
Present Weather: no significant weather observed at this time
KVRB 151253Z 23005KT 10SM CLR 29/22 A3007 RMK AO2 SLP182 T02890222

Conditions at: KVRB observed 15 July 2018  11:53 UTC
Temperature: 26.1°C (79°F)
Dewpoint: 23.3°C (74°F) [RH = 85%]
Pressure (altimeter): 30.05 inches Hg (1017.7 mb)
[Sea-level pressure: 1017.6 mb]
Winds: from the SW (220 degrees) at 3 MPH (3 knots; 1.6 m/s)
Visibility: 10 or more miles (16+ km)
Ceiling: at least 12,000 feet AGL
Clouds: sky clear below 12,000 feet AGL
Present Weather: no significant weather observed at this time
KVRB 151153Z 22003KT 10SM CLR 26/23 A3005 RMK AO2 SLP176 T02610233 10261 20222 53004

Conditions at: KVRB observed 15 July 2018  10:53 UTC
Temperature: 22.8°C (73°F)
Dewpoint: 22.2°C (72°F) [RH = 96%]
Pressure (altimeter): 30.05 inches Hg (1017.7 mb)
[Sea-level pressure: 1017.4 mb]
Winds: calm
Visibility: 9 miles (14 km)
Ceiling: at least 12,000 feet AGL
Clouds: sky clear below 12,000 feet AGL
Present Weather: automated observation with no human augmentation;
there may or may not be significant weather present at this time
KVRB 151053Z AUTO 00000KT 9SM CLR 23/22 A3005 RMK AO2 SLP174 T02280222

Conditions at: KVRB observed 15 July 2018  09:53 UTC
Temperature: 22.2°C (72°F)
Dewpoint: 21.7°C (71°F) [RH = 97%]
Pressure (altimeter): 30.04 inches Hg (1017.4 mb)
[Sea-level pressure: 1017.2 mb]
Winds: calm
Visibility: 9 miles (14 km)
Ceiling: at least 12,000 feet AGL
Clouds: sky clear below 12,000 feet AGL
Present Weather: automated observation with no human augmentation;
there may or may not be significant weather present at this time
KVRB 150953Z AUTO 00000KT 9SM CLR 22/22 A3004 RMK AO2 SLP172 T02220217

Conditions at: KVRB observed 15 July 2018  08:53 UTC
Temperature: 23.9°C (75°F)
Dewpoint: 22.8°C (73°F) [RH = 94%]
Pressure (altimeter): 30.04 inches Hg (1017.4 mb)
[Sea-level pressure: 1017.1 mb]
Winds: calm
Visibility: 10 or more miles (16+ km)
Ceiling: at least 12,000 feet AGL
Clouds: sky clear below 12,000 feet AGL
Present Weather: automated observation with no human augmentation;
there may or may not be significant weather present at this time
KVRB 150853Z AUTO 00000KT 10SM CLR 24/23 A3004 RMK AO2 SLP171 T02390228 55005

Conditions at: KVRB observed 15 July 2018  07:53 UTC
Temperature: 23.9°C (75°F)
Dewpoint: 22.2°C (72°F) [RH = 90%]
Pressure (altimeter): 30.04 inches Hg (1017.4 mb)
[Sea-level pressure: 1017.0 mb]
Winds: calm
Visibility: 10 or more miles (16+ km)
Ceiling: at least 12,000 feet AGL
Clouds: sky clear below 12,000 feet AGL
Present Weather: automated observation with no human augmentation;
there may or may not be significant weather present at this time
KVRB 150753Z AUTO 00000KT 10SM CLR 24/22 A3004 RMK AO2 SLP170 T02390222

Conditions at: KVRB observed 15 July 2018  06:53 UTC
Temperature: 24.4°C (76°F)
Dewpoint: 22.2°C (72°F) [RH = 88%]
Pressure (altimeter): 30.05 inches Hg (1017.7 mb)
[Sea-level pressure: 1017.3 mb]
Winds: calm
Visibility: 10 or more miles (16+ km)
Ceiling: at least 12,000 feet AGL
Clouds: sky clear below 12,000 feet AGL
Present Weather: automated observation with no human augmentation;
there may or may not be significant weather present at this time
KVRB 150653Z AUTO 00000KT 10SM CLR 24/22 A3005 RMK AO2 SLP173 T02440222

Conditions at: KVRB observed 15 July 2018  05:53 UTC
Temperature: 26.1°C (79°F)
Dewpoint: 21.7°C (71°F) [RH = 77%]
Pressure (altimeter): 30.06 inches Hg (1018.0 mb)
[Sea-level pressure: 1017.6 mb]
Winds: from the W (260 degrees) at 5 MPH (4 knots; 2.1 m/s)
Visibility: 10 or more miles (16+ km)
Ceiling: at least 12,000 feet AGL
Clouds: scattered clouds at 4800 feet AGL
Present Weather: automated observation with no human augmentation;
there may or may not be significant weather present at this time
KVRB 150553Z AUTO 26004KT 10SM SCT048 26/22 A3006 RMK AO2 SLP176 T02610217 10289 20261 58010

Conditions at: KVRB observed 15 July 2018  04:53 UTC
Temperature: 26.7°C (80°F)
Dewpoint: 21.7°C (71°F) [RH = 74%]
Pressure (altimeter): 30.07 inches Hg (1018.4 mb)
[Sea-level pressure: 1018.1 mb]
Winds: from the S (180 degrees) at 5 MPH (4 knots; 2.1 m/s)
Visibility: 10 or more miles (16+ km)
Ceiling: at least 12,000 feet AGL
Clouds: sky clear below 12,000 feet AGL
Present Weather: automated observation with no human augmentation;
there may or may not be significant weather present at this time
KVRB 150453Z AUTO 18004KT 10SM CLR 27/22 A3007 RMK AO2 SLP181 T02670217 403330206